Time;durP1;ratioP1;P1;durP2;ratioP2;P2;SDS_P1;SDS_P2;PMS_P1;PMS_P2;Temp;Humidity;BMP_temperature;BMP_pressure;BME280_temperature;BME280_humidity;BME280_pressure;Samples;Min_cycle;Max_cycle;Signal;HPM_P1;HPM_P2
2022/03/17 00:00:08;;;;;;;6.87;1.70;;;26.40;99.90;;;;;;4915408;29;20659;-67
2022/03/17 00:02:37;;;;;;;12.93;3.53;;;26.10;99.90;;;;;;4915303;29;20240;-67
2022/03/17 00:05:09;;;;;;;5.40;2.57;;;26.30;99.90;;;;;;4915362;29;20216;-68
2022/03/17 00:07:42;;;;;;;7.53;2.67;;;25.80;99.90;;;;;;4915241;29;20228;-69
2022/03/17 00:10:13;;;;;;;7.17;2.27;;;26.10;99.90;;;;;;4914918;29;20317;-68
2022/03/17 00:12:42;;;;;;;9.93;2.73;;;26.00;99.90;;;;;;4914852;29;20609;-68
2022/03/17 00:15:10;;;;;;;7.33;2.57;;;25.70;99.90;;;;;;4914353;29;20204;-67
2022/03/17 00:17:37;;;;;;;12.83;3.23;;;25.80;99.90;;;;;;4915252;29;20298;-68
2022/03/17 00:20:07;;;;;;;8.03;2.83;;;26.00;99.90;;;;;;4912870;29;20260;-69
2022/03/17 00:22:35;;;;;;;15.37;3.10;;;25.60;99.90;;;;;;4914644;29;20209;-68
2022/03/17 00:25:04;;;;;;;11.53;2.70;;;25.60;99.90;;;;;;4914297;29;20194;-68
2022/03/17 00:27:31;;;;;;;9.60;2.53;;;26.20;99.90;;;;;;4914794;29;20196;-68
2022/03/17 00:29:59;;;;;;;9.10;2.53;;;26.10;99.90;;;;;;4914996;29;20210;-68
2022/03/17 00:32:26;;;;;;;9.77;2.60;;;26.40;99.90;;;;;;4914897;29;20194;-68
2022/03/17 00:37:39;;;;;;;8.73;2.80;;;27.20;99.90;;;;;;4915320;29;20204;-68
2022/03/17 00:40:07;;;;;;;7.23;2.63;;;27.00;99.90;;;;;;4915130;29;20666;-68
2022/03/17 00:42:34;;;;;;;11.07;2.70;;;26.80;99.90;;;;;;4916465;29;20189;-68
2022/03/17 00:45:01;;;;;;;10.90;2.70;;;27.30;99.90;;;;;;4910500;29;20181;-68
2022/03/17 00:47:29;;;;;;;8.10;3.23;;;28.10;99.90;;;;;;4917370;29;20643;-68
2022/03/17 00:49:56;;;;;;;7.27;2.47;;;28.00;99.90;;;;;;4918051;29;20275;-68
2022/03/17 00:52:24;;;;;;;9.17;2.90;;;28.10;99.90;;;;;;4918054;29;20564;-68
2022/03/17 00:54:51;;;;;;;6.63;2.83;;;28.00;99.90;;;;;;4918504;29;20181;-68
2022/03/17 00:57:18;;;;;;;12.90;3.20;;;27.60;99.90;;;;;;4918322;29;20181;-67
2022/03/17 00:59:46;;;;;;;7.83;2.60;;;27.40;99.90;;;;;;4901474;29;20216;-68
2022/03/17 01:02:13;;;;;;;7.47;3.30;;;27.10;99.90;;;;;;4917627;29;20261;-67
2022/03/17 01:04:40;;;;;;;8.23;2.60;;;26.80;99.90;;;;;;4916677;29;20185;-68
2022/03/17 01:07:08;;;;;;;11.17;3.20;;;26.90;99.90;;;;;;4918992;29;20767;-67
2022/03/17 01:09:35;;;;;;;10.97;3.00;;;27.20;99.90;;;;;;4916530;29;20225;-68
2022/03/17 01:12:03;;;;;;;14.07;3.67;;;27.30;99.90;;;;;;4917494;29;20185;-67
2022/03/17 01:14:30;;;;;;;8.13;2.87;;;27.40;99.90;;;;;;4916398;29;20260;-68
2022/03/17 01:16:58;;;;;;;10.47;2.83;;;27.30;99.90;;;;;;4917423;29;20213;-69
2022/03/17 01:19:26;;;;;;;8.97;3.87;;;27.70;99.90;;;;;;4913130;29;20264;-67
2022/03/17 01:21:53;;;;;;;11.17;2.67;;;28.40;99.90;;;;;;4916484;29;20193;-71
2022/03/17 01:24:21;;;;;;;8.47;2.73;;;28.40;99.90;;;;;;4917337;29;20205;-69
2022/03/17 01:26:48;;;;;;;8.97;2.87;;;28.60;99.90;;;;;;4918053;29;20618;-69
2022/03/17 01:29:16;;;;;;;7.07;3.00;;;29.20;99.90;;;;;;4917104;29;20232;-69
2022/03/17 01:31:45;;;;;;;6.77;2.60;;;29.30;99.90;;;;;;4917343;29;20186;-69
2022/03/17 01:34:12;;;;;;;7.23;2.33;;;29.50;99.90;;;;;;4917420;29;20193;-69
2022/03/17 01:36:39;;;;;;;6.40;2.20;;;29.20;99.90;;;;;;4917998;29;20639;-68
2022/03/17 01:39:07;;;;;;;9.40;2.15;;;29.50;99.90;;;;;;4917804;29;20193;-69
2022/03/17 01:41:39;;;;;;;7.63;2.20;;;30.10;99.90;;;;;;4917625;29;20192;-68
2022/03/17 01:44:07;;;;;;;8.10;2.78;;;30.20;99.90;;;;;;4918529;29;20605;-69
2022/03/17 01:47:26;;;;;;;5.73;2.27;;;29.80;99.90;;;;;;4919266;29;20554;-69
2022/03/17 01:49:22;;;;;;;9.13;2.43;;;29.70;99.90;;;;;;4917785;29;20678;-70
2022/03/17 01:51:49;;;;;;;7.40;2.40;;;29.80;99.90;;;;;;4917574;29;20178;-69
2022/03/17 01:54:20;;;;;;;6.17;2.73;;;29.70;99.90;;;;;;4917834;29;20521;-70
2022/03/17 01:56:48;;;;;;;6.53;2.50;;;29.30;99.90;;;;;;4917012;29;20174;-69
2022/03/17 01:59:15;;;;;;;9.27;2.70;;;29.00;99.90;;;;;;4915589;29;20256;-67
2022/03/17 02:01:44;;;;;;;9.50;2.97;;;29.50;99.90;;;;;;4917417;29;20240;-68
2022/03/17 02:04:12;;;;;;;6.40;2.50;;;29.70;99.90;;;;;;4917967;29;20192;-68
2022/03/17 02:06:40;;;;;;;8.70;2.97;;;29.30;99.90;;;;;;4917509;29;20248;-68
2022/03/17 02:09:07;;;;;;;7.00;2.50;;;29.10;99.90;;;;;;4918122;29;20227;-69
2022/03/17 02:14:24;;;;;;;5.70;2.20;;;29.30;99.90;;;;;;4917680;29;20228;-68
2022/03/17 02:16:53;;;;;;;7.00;2.20;;;29.70;99.90;;;;;;4916874;29;20193;-68
2022/03/17 02:19:23;;;;;;;8.57;2.23;;;29.90;99.90;;;;;;4917643;29;20550;-68
2022/03/17 02:21:51;;;;;;;10.57;2.70;;;30.10;99.90;;;;;;4918200;29;20667;-68
2022/03/17 02:27:05;;;;;;;8.65;2.40;;;30.20;99.90;;;;;;4917129;29;20224;-69
2022/03/17 02:29:32;;;;;;;8.87;2.20;;;30.10;99.90;;;;;;4916977;29;20724;-68
2022/03/17 02:31:59;;;;;;;6.20;2.60;;;29.90;99.90;;;;;;4916617;29;20276;-69
2022/03/17 02:34:27;;;;;;;5.88;2.28;;;30.10;99.90;;;;;;4917358;29;20209;-69
2022/03/17 02:36:55;;;;;;;8.03;2.17;;;30.30;99.90;;;;;;4916938;29;20264;-69
2022/03/17 02:39:23;;;;;;;7.13;2.20;;;30.70;99.90;;;;;;4917252;29;20182;-69
2022/03/17 02:41:50;;;;;;;6.25;2.20;;;30.90;99.90;;;;;;4914830;29;20557;-69
2022/03/17 02:44:17;;;;;;;7.13;2.30;;;31.00;99.90;;;;;;4917580;29;20182;-69
2022/03/17 02:46:45;;;;;;;3.67;2.00;;;30.00;99.90;;;;;;4917996;29;20220;-69
2022/03/17 02:49:15;;;;;;;7.37;2.30;;;30.10;99.90;;;;;;4917280;29;20571;-69
2022/03/17 02:51:43;;;;;;;5.75;2.50;;;30.70;99.90;;;;;;4918105;29;20218;-69
2022/03/17 02:54:10;;;;;;;7.20;2.50;;;30.50;99.90;;;;;;4916967;29;20655;-68
2022/03/17 02:56:37;;;;;;;5.60;2.37;;;30.10;99.90;;;;;;4916186;29;20240;-68
2022/03/17 02:59:05;;;;;;;6.87;2.67;;;30.10;99.90;;;;;;4917520;29;20242;-68
2022/03/17 03:01:32;;;;;;;7.20;2.53;;;30.00;99.90;;;;;;4917208;29;20248;-68
2022/03/17 03:03:59;;;;;;;5.67;2.27;;;30.10;99.90;;;;;;4917531;29;20623;-68
2022/03/17 03:06:26;;;;;;;5.57;2.67;;;30.00;99.90;;;;;;4916469;29;20177;-69
2022/03/17 03:08:54;;;;;;;6.37;2.70;;;30.10;99.90;;;;;;4917406;29;20646;-70
2022/03/17 03:11:21;;;;;;;8.23;3.03;;;30.00;99.90;;;;;;4917300;29;20182;-68
2022/03/17 03:13:48;;;;;;;4.70;2.93;;;30.10;99.90;;;;;;4917130;29;20180;-68
2022/03/17 03:16:16;;;;;;;7.53;3.40;;;30.20;99.90;;;;;;4916300;29;20177;-68
2022/03/17 03:18:44;;;;;;;6.20;3.03;;;30.10;99.90;;;;;;4917132;29;20181;-69
2022/03/17 03:21:11;;;;;;;6.73;3.10;;;30.10;99.90;;;;;;4917332;29;20616;-68
2022/03/17 03:23:39;;;;;;;4.93;2.73;;;30.10;99.90;;;;;;4917092;29;20240;-68
2022/03/17 03:26:06;;;;;;;6.23;2.70;;;30.20;99.90;;;;;;4917119;29;20174;-68
2022/03/17 03:28:33;;;;;;;6.35;2.70;;;30.20;99.90;;;;;;4917102;29;20185;-69
2022/03/17 03:31:01;;;;;;;7.57;3.17;;;30.10;99.90;;;;;;4917138;29;20236;-67
2022/03/17 03:33:28;;;;;;;4.47;2.70;;;30.20;99.90;;;;;;4916914;29;20415;-68
2022/03/17 03:38:42;;;;;;;8.23;3.10;;;30.00;99.90;;;;;;4917163;29;20188;-68
2022/03/17 03:41:09;;;;;;;6.83;2.80;;;30.20;99.90;;;;;;4916980;29;20190;-69
2022/03/17 03:43:36;;;;;;;5.90;2.57;;;29.80;99.90;;;;;;4917016;29;20212;-69
2022/03/17 03:46:04;;;;;;;6.20;2.63;;;29.90;99.90;;;;;;4916791;29;20277;-69
2022/03/17 03:48:32;;;;;;;6.83;3.10;;;29.50;99.90;;;;;;4916867;29;20180;-69
2022/03/17 03:50:59;;;;;;;6.10;2.77;;;29.30;99.90;;;;;;4916974;29;20188;-69
2022/03/17 03:54:12;;;;;;;5.27;2.87;;;29.20;99.90;;;;;;4916663;29;20264;-69
2022/03/17 03:56:13;;;;;;;6.10;3.00;;;29.30;99.90;;;;;;4915361;29;20264;-69
2022/03/17 03:58:41;;;;;;;5.23;2.60;;;29.60;99.90;;;;;;4915409;29;20550;-67
2022/03/17 04:01:08;;;;;;;5.43;2.73;;;29.70;99.90;;;;;;4916524;29;20644;-67
2022/03/17 04:03:35;;;;;;;6.43;2.50;;;29.70;99.90;;;;;;4916832;29;20177;-67
2022/03/17 04:06:03;;;;;;;8.03;2.80;;;29.90;99.90;;;;;;4916796;29;20185;-68
2022/03/17 04:08:30;;;;;;;6.20;3.20;;;29.80;99.90;;;;;;4916598;29;20185;-68
2022/03/17 04:10:57;;;;;;;7.43;2.60;;;29.90;99.90;;;;;;4916659;29;20603;-68
2022/03/17 04:13:24;;;;;;;6.60;2.80;;;29.80;99.90;;;;;;4916438;29;20544;-68
2022/03/17 04:15:52;;;;;;;4.77;2.87;;;29.70;99.90;;;;;;4916449;29;20268;-68
2022/03/17 04:18:19;;;;;;;9.83;3.00;;;30.10;99.90;;;;;;4920079;29;20174;-68
2022/03/17 04:20:46;;;;;;;5.50;2.87;;;29.70;99.90;;;;;;4920444;29;20204;-68
2022/03/17 04:23:14;;;;;;;5.60;2.80;;;29.50;99.90;;;;;;4920016;29;20176;-68
2022/03/17 04:25:41;;;;;;;5.23;3.13;;;29.20;99.90;;;;;;4919831;29;20425;-68
2022/03/17 04:28:08;;;;;;;6.83;2.77;;;29.40;99.90;;;;;;4920105;29;20267;-69
2022/03/17 04:30:36;;;;;;;7.23;2.57;;;29.40;99.90;;;;;;4919095;29;20216;-68
2022/03/17 04:33:03;;;;;;;4.10;2.10;;;29.30;99.90;;;;;;4918978;29;20209;-68
2022/03/17 04:35:31;;;;;;;3.43;2.10;;;29.20;99.90;;;;;;4919418;29;20217;-68
2022/03/17 04:37:58;;;;;;;4.67;2.17;;;29.00;99.90;;;;;;4919540;29;20213;-69
2022/03/17 04:40:26;;;;;;;4.47;2.53;;;29.20;99.90;;;;;;4920026;29;20181;-69
2022/03/17 04:42:53;;;;;;;5.83;2.53;;;29.40;99.90;;;;;;4919519;29;20192;-69
2022/03/17 04:45:20;;;;;;;8.33;2.70;;;29.40;99.90;;;;;;4919872;29;20261;-68
2022/03/17 04:47:48;;;;;;;8.63;2.73;;;29.50;99.90;;;;;;4919704;29;20634;-68
2022/03/17 04:50:15;;;;;;;5.23;2.97;;;29.50;99.90;;;;;;4919154;29;20236;-69
2022/03/17 04:55:28;;;;;;;6.57;2.43;;;29.30;99.90;;;;;;4919802;29;20188;-69
2022/03/17 04:57:55;;;;;;;6.00;2.60;;;29.50;99.90;;;;;;4918953;29;20671;-68
2022/03/17 05:00:23;;;;;;;5.10;2.40;;;29.50;99.90;;;;;;4919759;29;20209;-68
2022/03/17 05:02:50;;;;;;;5.33;2.40;;;29.50;99.90;;;;;;4918887;29;20202;-68
2022/03/17 05:05:17;;;;;;;6.67;3.00;;;29.50;99.90;;;;;;4919406;29;20215;-68
2022/03/17 05:07:45;;;;;;;4.80;2.57;;;29.40;99.90;;;;;;4918225;29;20551;-68
2022/03/17 05:10:12;;;;;;;6.17;2.40;;;29.10;99.90;;;;;;4918578;29;20216;-68
2022/03/17 05:12:39;;;;;;;7.80;2.50;;;28.90;99.90;;;;;;4919398;29;20170;-69
2022/03/17 05:15:07;;;;;;;9.70;2.80;;;28.90;99.90;;;;;;4919422;29;20235;-67
2022/03/17 05:17:38;;;;;;;4.10;2.40;;;29.00;99.90;;;;;;4918530;29;20196;-69
2022/03/17 05:20:11;;;;;;;5.70;2.30;;;29.10;99.90;;;;;;4919146;29;20184;-68
2022/03/17 05:22:38;;;;;;;3.33;1.73;;;29.20;99.90;;;;;;4918424;29;20636;-68
2022/03/17 05:25:08;;;;;;;4.93;1.87;;;29.20;99.90;;;;;;4919091;29;20636;-68
2022/03/17 05:27:41;;;;;;;4.07;1.90;;;29.20;99.90;;;;;;4917412;29;20211;-68
2022/03/17 05:30:14;;;;;;;4.73;1.73;;;29.00;99.90;;;;;;4918248;29;20300;-69
2022/03/17 05:32:43;;;;;;;2.80;1.57;;;28.80;99.90;;;;;;4919408;29;20212;-69
2022/03/17 05:35:12;;;;;;;5.43;2.03;;;28.70;99.90;;;;;;4920167;29;20670;-68
2022/03/17 05:37:40;;;;;;;6.43;2.47;;;28.70;99.90;;;;;;4920198;29;20190;-70
2022/03/17 05:40:13;;;;;;;4.70;1.93;;;28.70;99.90;;;;;;4920448;29;20193;-69
2022/03/17 05:42:53;;;;;;;4.97;2.00;;;28.70;99.90;;;;;;4920873;29;20178;-68
2022/03/17 05:45:20;;;;;;;5.53;2.03;;;28.60;99.90;;;;;;4920300;29;20185;-69
2022/03/17 05:47:50;;;;;;;4.50;1.80;;;28.80;99.90;;;;;;4924364;29;20193;-69
2022/03/17 05:50:21;;;;;;;4.63;1.83;;;28.50;99.90;;;;;;4917962;29;20221;-70
2022/03/17 05:52:49;;;;;;;5.30;1.60;;;28.60;99.90;;;;;;4918081;29;20178;-68
2022/03/17 05:55:19;;;;;;;5.33;1.43;;;28.60;99.90;;;;;;4915897;29;20196;-69
2022/03/17 05:57:49;;;;;;;5.67;1.73;;;28.40;99.90;;;;;;4918090;29;20178;-69
2022/03/17 06:00:20;;;;;;;4.80;1.80;;;28.40;99.90;;;;;;4918170;29;20513;-68
2022/03/17 06:02:47;;;;;;;3.67;1.67;;;28.40;99.90;;;;;;4918266;29;20233;-68
2022/03/17 06:05:15;;;;;;;8.03;2.23;;;28.40;99.90;;;;;;4918255;29;20182;-69
2022/03/17 06:07:48;;;;;;;4.53;1.57;;;28.30;99.90;;;;;;4917397;29;20280;-69
2022/03/17 06:10:21;;;;;;;5.77;1.67;;;28.20;99.90;;;;;;4917543;29;20220;-69
2022/03/17 06:12:51;;;;;;;5.53;1.50;;;28.20;99.90;;;;;;4915740;29;20588;-68
2022/03/17 06:15:20;;;;;;;5.63;1.87;;;28.40;99.90;;;;;;4902171;29;20181;-68
2022/03/17 06:17:59;;;;;;;6.27;1.50;;;28.40;99.90;;;;;;4912634;29;20193;-68
2022/03/17 06:20:29;;;;;;;3.17;1.70;;;28.40;99.90;;;;;;4916515;29;20204;-68
2022/03/17 06:22:59;;;;;;;2.73;1.20;;;28.70;99.90;;;;;;4916828;29;20265;-68
2022/03/17 06:25:28;;;;;;;9.00;2.00;;;28.90;99.90;;;;;;4916851;29;20565;-67
2022/03/17 06:27:56;;;;;;;5.97;1.67;;;28.80;99.90;;;;;;4916757;29;20317;-67
2022/03/17 06:30:25;;;;;;;2.70;1.17;;;28.90;99.90;;;;;;4916283;29;20702;-68
2022/03/17 06:32:54;;;;;;;4.47;1.13;;;29.00;99.90;;;;;;4916553;29;20193;-68
2022/03/17 06:35:27;;;;;;;5.47;1.17;;;29.10;99.90;;;;;;4916500;29;20193;-69
2022/03/17 06:37:57;;;;;;;2.90;1.23;;;29.00;99.90;;;;;;4915572;29;20196;-68
2022/03/17 06:40:25;;;;;;;5.60;1.50;;;28.90;99.90;;;;;;4915720;29;20193;-69
2022/03/17 06:42:54;;;;;;;3.97;1.33;;;28.90;99.90;;;;;;4916530;29;20647;-68
2022/03/17 06:45:22;;;;;;;4.33;1.40;;;28.80;99.90;;;;;;4916633;29;20237;-68
2022/03/17 06:47:49;;;;;;;4.30;1.40;;;28.90;99.90;;;;;;4916270;29;20197;-68
2022/03/17 06:50:20;;;;;;;7.63;2.07;;;29.00;99.90;;;;;;4915899;29;20213;-68
2022/03/17 06:52:47;;;;;;;4.93;1.50;;;28.80;99.90;;;;;;4916039;29;20542;-67
2022/03/17 06:55:15;;;;;;;5.10;1.73;;;28.60;99.90;;;;;;4913604;29;20181;-67
2022/03/17 06:57:43;;;;;;;9.23;1.90;;;28.40;99.90;;;;;;4915978;29;20538;-69
2022/03/17 07:00:13;;;;;;;8.77;2.20;;;28.20;99.90;;;;;;4915371;29;20275;-69
2022/03/17 07:02:41;;;;;;;6.90;2.23;;;27.70;99.90;;;;;;4915300;29;21046;-68
2022/03/17 07:05:09;;;;;;;4.97;2.10;;;27.60;99.90;;;;;;4915827;29;20657;-68
2022/03/17 07:07:37;;;;;;;7.13;1.87;;;27.40;99.90;;;;;;4915612;29;20649;-68
2022/03/17 07:10:06;;;;;;;7.97;2.33;;;27.30;99.90;;;;;;4915191;29;20217;-68
2022/03/17 07:12:37;;;;;;;6.50;1.97;;;27.10;99.90;;;;;;4912915;29;20241;-68
2022/03/17 07:15:06;;;;;;;6.07;2.23;;;27.00;99.90;;;;;;4914497;29;20173;-67
2022/03/17 07:17:40;;;;;;;7.47;3.23;;;26.70;99.90;;;;;;4915589;29;20181;-68
2022/03/17 07:20:25;;;;;;;7.17;2.37;;;26.60;99.90;;;;;;4915008;29;20199;-68
2022/03/17 07:22:52;;;;;;;4.73;2.03;;;26.30;99.90;;;;;;4915222;29;20180;-68
2022/03/17 07:25:22;;;;;;;8.73;2.17;;;26.30;99.90;;;;;;4915520;29;20182;-68
2022/03/17 07:27:49;;;;;;;7.53;2.40;;;26.20;99.90;;;;;;4915218;29;20617;-68
2022/03/17 07:30:22;;;;;;;6.57;1.90;;;26.10;99.90;;;;;;4912392;29;20257;-67
2022/03/17 07:32:55;;;;;;;6.53;1.97;;;26.00;99.90;;;;;;4915404;29;20181;-68
2022/03/17 07:35:25;;;;;;;4.97;1.73;;;25.90;99.90;;;;;;4915373;29;20323;-68
2022/03/17 07:37:53;;;;;;;6.27;1.90;;;25.70;99.90;;;;;;4915179;29;20181;-67
2022/03/17 07:40:21;;;;;;;7.63;2.23;;;25.60;99.90;;;;;;4912579;29;20673;-68
2022/03/17 07:42:49;;;;;;;5.73;1.70;;;25.50;99.90;;;;;;4915247;29;20181;-68
2022/03/17 07:45:16;;;;;;;6.97;2.23;;;25.40;99.90;;;;;;4914471;29;20193;-68
2022/03/17 07:47:48;;;;;;;7.87;1.90;;;25.40;99.90;;;;;;4914138;29;20204;-68
2022/03/17 07:50:17;;;;;;;14.43;2.23;;;25.40;99.90;;;;;;4913752;29;20252;-68
2022/03/17 07:52:44;;;;;;;7.40;2.17;;;25.40;99.90;;;;;;4916333;29;20256;-67
2022/03/17 07:55:12;;;;;;;9.10;2.47;;;25.30;99.90;;;;;;4917655;29;20679;-68
2022/03/17 07:57:40;;;;;;;7.07;2.20;;;25.20;99.90;;;;;;4916608;29;20344;-70
2022/03/17 08:00:13;;;;;;;8.03;2.17;;;25.20;99.90;;;;;;4917676;29;20208;-68
2022/03/17 08:02:43;;;;;;;4.93;2.00;;;25.10;99.90;;;;;;4916843;29;20239;-68
2022/03/17 08:05:15;;;;;;;5.83;2.33;;;25.00;99.90;;;;;;4900541;29;20232;-68
2022/03/17 08:07:42;;;;;;;6.67;2.50;;;25.00;99.90;;;;;;4900393;29;20196;-68
2022/03/17 08:10:11;;;;;;;8.90;2.67;;;24.90;99.90;;;;;;4900232;29;20285;-68
2022/03/17 08:12:38;;;;;;;5.40;2.60;;;24.80;99.90;;;;;;4900164;29;20273;-68
2022/03/17 08:15:06;;;;;;;9.73;2.50;;;24.80;99.90;;;;;;4901638;29;20270;-70
2022/03/17 08:17:34;;;;;;;9.57;3.13;;;24.80;99.90;;;;;;4919332;29;20242;-69
2022/03/17 08:20:04;;;;;;;6.07;2.20;;;24.80;99.90;;;;;;4919198;29;20300;-68
2022/03/17 08:22:32;;;;;;;9.83;2.93;;;24.70;99.90;;;;;;4918950;29;20554;-68
2022/03/17 08:24:59;;;;;;;8.40;2.40;;;24.70;99.90;;;;;;4917746;29;21005;-69
2022/03/17 08:27:27;;;;;;;7.20;2.10;;;24.60;99.90;;;;;;4919094;29;20610;-69
2022/03/17 08:29:54;;;;;;;7.47;2.50;;;24.50;99.90;;;;;;4918965;29;20251;-69
2022/03/17 08:32:21;;;;;;;15.00;3.00;;;24.50;99.90;;;;;;4918854;29;20181;-69
2022/03/17 08:34:49;;;;;;;7.20;2.13;;;24.50;99.90;;;;;;4919024;29;20220;-69
2022/03/17 08:37:16;;;;;;;8.43;2.40;;;24.40;99.90;;;;;;4918967;29;20185;-69
2022/03/17 08:39:43;;;;;;;6.00;2.10;;;24.30;99.90;;;;;;4919003;29;20244;-69
2022/03/17 08:42:11;;;;;;;5.83;1.97;;;24.20;99.90;;;;;;4918816;29;20264;-69
2022/03/17 08:44:39;;;;;;;8.57;2.93;;;24.20;99.90;;;;;;4918825;29;20243;-69
2022/03/17 08:49:53;;;;;;;7.10;2.00;;;24.10;99.90;;;;;;4918695;29;20255;-69
2022/03/17 08:52:20;;;;;;;5.03;1.80;;;24.10;99.90;;;;;;4918488;29;20268;-69
2022/03/17 08:54:48;;;;;;;9.27;2.10;;;24.10;99.90;;;;;;4918197;29;20181;-69
2022/03/17 08:57:18;;;;;;;5.03;1.53;;;24.00;99.90;;;;;;4918557;29;20185;-70
2022/03/17 08:59:46;;;;;;;4.87;1.57;;;23.90;99.90;;;;;;4917435;29;20647;-69
2022/03/17 09:02:14;;;;;;;6.00;1.63;;;23.90;99.90;;;;;;4915850;29;20233;-70
2022/03/17 09:04:42;;;;;;;11.03;1.90;;;23.80;99.90;;;;;;4917517;29;20283;-69
2022/03/17 09:07:11;;;;;;;8.57;1.50;;;23.80;99.90;;;;;;4918460;29;20192;-69
2022/03/17 09:09:39;;;;;;;8.00;1.83;;;23.80;99.90;;;;;;4918434;29;20215;-70
2022/03/17 09:12:08;;;;;;;8.30;1.30;;;23.80;99.90;;;;;;4917835;29;20199;-69
2022/03/17 09:14:40;;;;;;;7.77;1.67;;;23.70;99.90;;;;;;4917925;29;20189;-68
2022/03/17 09:17:08;;;;;;;11.10;1.87;;;23.60;99.90;;;;;;4918298;29;20251;-69
2022/03/17 09:19:37;;;;;;;8.10;1.53;;;23.60;99.90;;;;;;4917900;29;20208;-69
2022/03/17 09:22:08;;;;;;;6.07;1.23;;;23.60;99.90;;;;;;4916874;29;20185;-69
2022/03/17 09:24:35;;;;;;;10.00;1.73;;;23.50;99.90;;;;;;4918045;29;20180;-70
2022/03/17 09:27:03;;;;;;;8.40;1.50;;;23.50;99.90;;;;;;4918133;29;20177;-69
2022/03/17 09:29:31;;;;;;;12.43;2.33;;;23.50;99.90;;;;;;4917950;29;20235;-69
2022/03/17 09:32:00;;;;;;;8.50;1.50;;;23.50;99.90;;;;;;4917760;29;20188;-68
2022/03/17 09:34:31;;;;;;;7.47;1.40;;;23.50;99.90;;;;;;4917858;29;20203;-68
2022/03/17 09:37:00;;;;;;;6.13;1.40;;;23.40;99.90;;;;;;4917342;29;20192;-69
2022/03/17 09:39:45;;;;;;;8.20;1.70;;;23.50;99.90;;;;;;4917489;29;20189;-69
2022/03/17 09:42:18;;;;;;;8.20;2.10;;;23.50;99.90;;;;;;4917790;29;20189;-69
2022/03/17 09:44:47;;;;;;;6.53;1.77;;;23.50;99.90;;;;;;4917740;29;20185;-70
2022/03/17 09:47:21;;;;;;;6.07;2.03;;;23.50;99.90;;;;;;4917586;29;20189;-70
2022/03/17 09:49:52;;;;;;;7.40;2.00;;;23.50;99.90;;;;;;4917769;29;20235;-70
2022/03/17 09:52:21;;;;;;;7.53;2.10;;;23.40;99.90;;;;;;4917386;29;20183;-70
2022/03/17 09:54:52;;;;;;;12.17;2.30;;;23.40;99.90;;;;;;4917014;29;20233;-69
2022/03/17 09:57:20;;;;;;;8.97;1.80;;;23.40;99.90;;;;;;4917225;29;20183;-68
2022/03/17 09:59:53;;;;;;;7.10;2.37;;;23.50;99.90;;;;;;4917494;29;20188;-70
2022/03/17 10:02:22;;;;;;;6.50;2.00;;;23.50;99.90;;;;;;4917174;29;20239;-68
2022/03/17 10:04:50;;;;;;;9.47;2.03;;;23.40;99.90;;;;;;4917099;29;20189;-68
2022/03/17 10:07:22;;;;;;;7.97;1.90;;;23.40;99.90;;;;;;4917334;29;20184;-68
2022/03/17 10:09:51;;;;;;;6.90;2.27;;;23.40;99.90;;;;;;4917262;29;20219;-69
2022/03/17 10:12:23;;;;;;;7.50;2.00;;;23.30;99.90;;;;;;4917126;29;20188;-68
2022/03/17 10:14:54;;;;;;;7.20;1.30;;;23.30;99.90;;;;;;4916323;29;20199;-69
2022/03/17 10:17:33;;;;;;;6.57;1.80;;;23.30;99.90;;;;;;4917782;29;20225;-68
2022/03/17 10:20:25;;;;;;;6.30;1.30;;;23.20;99.90;;;;;;4917135;29;20604;-68
2022/03/17 10:22:58;;;;;;;8.60;1.80;;;23.20;99.90;;;;;;4917095;29;20192;-68
2022/03/17 10:25:31;;;;;;;8.97;1.80;;;23.20;99.90;;;;;;4917023;29;20177;-68
2022/03/17 10:28:01;;;;;;;4.90;1.57;;;23.10;99.90;;;;;;4916805;29;20193;-68
2022/03/17 10:30:35;;;;;;;4.73;1.50;;;23.10;99.90;;;;;;4916545;29;20227;-68
2022/03/17 10:33:14;;;;;;;8.47;2.13;;;23.10;99.90;;;;;;4916849;29;20636;-67
2022/03/17 10:35:48;;;;;;;16.30;2.10;;;23.10;99.90;;;;;;4916563;29;20208;-68
2022/03/17 10:38:18;;;;;;;6.37;1.57;;;23.10;99.90;;;;;;4916730;29;20189;-68
2022/03/17 10:41:12;;;;;;;4.63;1.40;;;23.10;99.90;;;;;;4916490;29;20200;-68
2022/03/17 10:43:42;;;;;;;6.87;1.60;;;23.20;99.90;;;;;;4913356;29;20232;-69
2022/03/17 10:46:22;;;;;;;4.97;1.60;;;23.10;99.90;;;;;;4916602;29;20177;-68
2022/03/17 10:48:53;;;;;;;6.23;1.70;;;23.20;99.90;;;;;;4916457;29;20545;-68
2022/03/17 10:51:43;;;;;;;7.90;1.77;;;23.20;99.90;;;;;;4916573;29;20188;-68
2022/03/17 10:54:19;;;;;;;10.43;1.87;;;23.20;99.90;;;;;;4916247;29;20180;-69
2022/03/17 10:57:11;;;;;;;4.10;1.80;;;23.20;99.90;;;;;;4914812;29;20231;-68
2022/03/17 10:59:44;;;;;;;5.30;1.60;;;23.10;99.90;;;;;;4916156;29;20288;-70
2022/03/17 11:02:17;;;;;;;7.33;2.13;;;23.10;99.90;;;;;;4914933;29;20596;-69
2022/03/17 11:04:47;;;;;;;8.60;2.30;;;23.10;99.90;;;;;;4916385;29;20207;-69
2022/03/17 11:07:17;;;;;;;6.57;2.10;;;23.00;99.90;;;;;;4916278;29;20714;-70
2022/03/17 11:09:46;;;;;;;7.00;1.57;;;23.00;99.90;;;;;;4916256;29;20231;-68
2022/03/17 11:12:20;;;;;;;5.30;1.53;;;23.00;99.90;;;;;;4916235;29;20271;-69
2022/03/17 11:14:53;;;;;;;7.77;2.10;;;23.00;99.90;;;;;;4915995;29;20301;-69
2022/03/17 11:17:48;;;;;;;8.87;2.30;;;23.00;99.90;;;;;;4916301;29;20291;-69
2022/03/17 11:20:25;;;;;;;8.97;2.13;;;23.00;99.90;;;;;;4914440;29;20643;-68
2022/03/17 11:23:35;;;;;;;6.50;1.83;;;23.00;99.90;;;;;;4915941;29;20206;-69
2022/03/17 11:26:03;;;;;;;7.50;2.17;;;23.00;99.90;;;;;;4899975;29;20195;-69
2022/03/17 11:28:41;;;;;;;7.50;2.73;;;23.00;99.90;;;;;;4916050;29;20591;-69
2022/03/17 11:31:10;;;;;;;5.07;2.33;;;23.00;99.90;;;;;;4915819;29;20311;-70
2022/03/17 11:33:44;;;;;;;13.47;2.20;;;23.00;99.90;;;;;;4915487;29;20182;-69
2022/03/17 11:36:24;;;;;;;8.63;1.97;;;23.00;99.90;;;;;;4916034;29;20180;-68
2022/03/17 11:39:09;;;;;;;10.90;2.27;;;23.00;99.90;;;;;;4916030;29;20180;-70
2022/03/17 11:41:44;;;;;;;6.53;2.53;;;23.00;99.90;;;;;;4915920;29;20195;-68
2022/03/17 11:44:13;;;;;;;4.40;1.80;;;23.00;99.90;;;;;;4914623;29;20191;-69
2022/03/17 11:46:46;;;;;;;9.27;1.97;;;23.00;99.90;;;;;;4915869;29;20267;-69
2022/03/17 11:49:30;;;;;;;4.00;1.73;;;22.90;99.90;;;;;;4914934;29;20299;-71
2022/03/17 11:52:03;;;;;;;5.67;1.90;;;22.90;99.90;;;;;;4916386;29;20654;-72
2022/03/17 11:54:32;;;;;;;5.20;2.20;;;22.80;99.90;;;;;;4916642;29;20726;-70
2022/03/17 11:57:04;;;;;;;3.47;1.70;;;22.80;99.90;;;;;;4916230;29;20189;-71
2022/03/17 11:59:52;;;;;;;5.13;2.00;;;22.80;99.90;;;;;;4916902;29;20235;-69
2022/03/17 12:02:29;;;;;;;4.57;1.57;;;22.80;99.90;;;;;;4915371;29;20259;-72
2022/03/17 12:05:09;;;;;;;6.40;1.80;;;22.70;99.90;;;;;;4916585;29;20271;-70
2022/03/17 12:07:47;;;;;;;5.70;2.23;;;22.70;99.90;;;;;;4917085;29;20844;-73
2022/03/17 12:10:34;;;;;;;7.57;2.10;;;22.70;99.90;;;;;;4916808;29;20211;-73
2022/03/17 12:13:24;;;;;;;6.87;2.20;;;22.70;99.90;;;;;;4878012;29;20206;-70
2022/03/17 12:15:58;;;;;;;4.80;1.83;;;22.70;99.90;;;;;;4915461;29;20195;-70
2022/03/17 12:18:26;;;;;;;7.83;1.97;;;22.70;99.90;;;;;;4915845;29;20235;-71
2022/03/17 12:20:54;;;;;;;6.40;2.03;;;22.70;99.90;;;;;;4916759;29;20178;-72
2022/03/17 12:23:45;;;;;;;6.10;1.70;;;22.70;99.90;;;;;;4916493;29;20543;-72
2022/03/17 12:26:13;;;;;;;7.43;1.90;;;22.60;99.90;;;;;;4916682;29;20231;-71
2022/03/17 12:28:45;;;;;;;8.93;2.20;;;22.60;99.90;;;;;;4915760;29;20195;-71
2022/03/17 12:31:14;;;;;;;8.73;2.00;;;22.60;99.90;;;;;;4916048;29;20280;-70
2022/03/17 12:33:46;;;;;;;7.83;2.27;;;22.60;99.90;;;;;;4917711;29;20587;-71
2022/03/17 12:36:15;;;;;;;6.73;1.80;;;22.60;99.90;;;;;;4916244;29;20189;-70
2022/03/17 12:38:43;;;;;;;3.77;1.70;;;22.60;99.90;;;;;;4919218;29;20183;-72
2022/03/17 12:41:14;;;;;;;10.03;2.17;;;22.70;99.90;;;;;;4919683;29;20188;-72
2022/03/17 12:43:42;;;;;;;7.53;1.57;;;22.60;99.90;;;;;;4919980;29;20279;-71
2022/03/17 12:46:10;;;;;;;8.30;1.77;;;22.60;99.90;;;;;;4918904;29;20264;-72
2022/03/17 12:48:38;;;;;;;6.53;1.90;;;22.60;99.90;;;;;;4918748;29;20195;-71
2022/03/17 12:51:07;;;;;;;6.90;2.57;;;22.60;99.90;;;;;;4918944;29;20224;-69
2022/03/17 12:53:36;;;;;;;6.83;2.20;;;22.60;99.90;;;;;;4919663;29;20203;-71
2022/03/17 12:56:05;;;;;;;5.73;2.60;;;22.60;99.90;;;;;;4919980;29;20239;-73
2022/03/17 12:58:41;;;;;;;7.07;2.30;;;22.50;99.90;;;;;;4919404;29;20222;-70
2022/03/17 13:01:13;;;;;;;5.07;1.53;;;22.50;99.90;;;;;;4919485;29;20315;-72
2022/03/17 13:03:41;;;;;;;9.73;2.43;;;22.40;99.90;;;;;;4919299;29;20262;-72
2022/03/17 13:08:56;;;;;;;9.87;2.00;;;22.40;99.90;;;;;;4919455;29;20623;-72
2022/03/17 13:14:24;;;;;;;5.00;2.13;;;22.30;99.90;;;;;;4919279;29;20215;-72
2022/03/17 13:17:04;;;;;;;4.10;1.73;;;22.20;99.90;;;;;;4919694;29;20694;-71
2022/03/17 13:19:42;;;;;;;7.83;2.67;;;22.20;99.90;;;;;;4919086;29;20189;-72
2022/03/17 13:22:10;;;;;;;7.90;2.10;;;22.20;99.90;;;;;;4919347;29;20184;-72